Time;durP1;ratioP1;P1;durP2;ratioP2;P2;SDS_P1;SDS_P2;PMS_P1;PMS_P2;Temp;Humidity;BMP_temperature;BMP_pressure;BME280_temperature;BME280_humidity;BME280_pressure;Samples;Min_cycle;Max_cycle;Signal;HPM_P1;HPM_P2
2023/12/08 00:00:46;;;;;;;75.93;36.17;;;;;;;0.91;100.00;101206.31;7392901;19;20027;-68
2023/12/08 00:03:14;;;;;;;72.38;33.25;;;;;;;0.91;100.00;101202.84;7394037;19;20607;-67
2023/12/08 00:05:42;;;;;;;75.90;36.47;;;;;;;0.90;100.00;101202.00;7395050;19;20066;-68
2023/12/08 00:08:14;;;;;;;83.35;36.05;;;;;;;0.90;100.00;101199.41;7394728;19;20509;-67
2023/12/08 00:10:42;;;;;;;79.00;34.90;;;;;;;0.90;100.00;101195.97;7394259;19;20027;-67
2023/12/08 00:13:11;;;;;;;76.80;33.95;;;;;;;0.89;100.00;101200.22;7394152;19;20078;-67
2023/12/08 00:15:39;;;;;;;75.13;35.85;;;;;;;0.89;100.00;101189.91;7394908;19;20021;-67
2023/12/08 00:18:08;;;;;;;72.78;34.28;;;;;;;0.89;100.00;101196.78;7394633;19;20086;-67
2023/12/08 00:20:36;;;;;;;77.60;36.30;;;;;;;0.88;100.00;101188.16;7394644;19;20015;-68
2023/12/08 00:23:06;;;;;;;74.50;35.28;;;;;;;0.88;100.00;101184.69;7392569;19;20074;-67
2023/12/08 00:25:37;;;;;;;81.70;37.50;;;;;;;0.87;100.00;101180.38;7394476;19;20015;-67
2023/12/08 00:28:06;;;;;;;72.38;35.30;;;;;;;0.87;100.00;101177.78;7394839;19;20018;-67
2023/12/08 00:30:35;;;;;;;71.78;34.65;;;;;;;0.87;100.00;101173.47;7391862;19;20014;-68
2023/12/08 00:33:03;;;;;;;72.97;35.40;;;;;;;0.87;100.00;101165.72;7393692;19;20033;-67
2023/12/08 00:35:32;;;;;;;72.72;35.45;;;;;;;0.87;100.00;101165.72;7398432;19;20086;-68
2023/12/08 00:38:00;;;;;;;64.53;33.58;;;;;;;0.87;100.00;101167.44;7401291;19;20481;-68
2023/12/08 00:40:29;;;;;;;74.47;34.47;;;;;;;0.87;100.00;101168.31;7401592;19;20014;-67
2023/12/08 00:43:00;;;;;;;71.53;34.45;;;;;;;0.87;100.00;101170.03;7403911;19;20481;-67
2023/12/08 00:45:29;;;;;;;69.63;33.95;;;;;;;0.86;100.00;101163.13;7399149;19;20014;-67
2023/12/08 00:47:57;;;;;;;68.55;32.47;;;;;;;0.85;100.00;101169.09;7400932;19;20011;-67
2023/12/08 00:50:25;;;;;;;64.00;32.05;;;;;;;0.82;100.00;101159.56;7400124;19;20027;-67
2023/12/08 00:52:54;;;;;;;69.90;32.25;;;;;;;0.80;100.00;101156.97;7400159;19;20434;-68
2023/12/08 00:55:22;;;;;;;63.97;31.83;;;;;;;0.79;100.00;101152.63;7401117;19;20018;-67
2023/12/08 00:57:51;;;;;;;66.65;33.10;;;;;;;0.78;100.00;101150.00;7400611;19;20383;-68
2023/12/08 01:00:22;;;;;;;64.32;32.55;;;;;;;0.76;100.00;101155.16;7400515;19;20010;-68
2023/12/08 01:02:51;;;;;;;65.93;33.80;;;;;;;0.77;100.00;101164.66;7400017;19;20082;-68
2023/12/08 01:05:20;;;;;;;64.32;30.98;;;;;;;0.77;100.00;101161.16;7400436;19;20006;-67
2023/12/08 01:07:48;;;;;;;60.95;31.25;;;;;;;0.74;100.00;101159.38;7400733;19;20469;-68
2023/12/08 01:10:17;;;;;;;64.97;31.08;;;;;;;0.74;100.00;101154.22;7399773;19;20010;-68
2023/12/08 01:12:46;;;;;;;57.53;29.73;;;;;;;0.73;100.00;101156.78;7400135;19;20086;-68
2023/12/08 01:15:14;;;;;;;55.70;30.38;;;;;;;0.72;100.00;101145.59;7400565;19;20023;-68
2023/12/08 01:17:45;;;;;;;60.50;30.05;;;;;;;0.70;100.00;101152.41;7400349;19;20018;-68
2023/12/08 01:20:14;;;;;;;65.28;33.17;;;;;;;0.70;100.00;101151.53;7400823;19;20079;-68
2023/12/08 01:22:42;;;;;;;60.63;30.75;;;;;;;0.68;100.00;101151.47;7399799;19;20095;-67
2023/12/08 01:25:11;;;;;;;57.80;29.83;;;;;;;0.68;100.00;101148.03;7400189;19;20087;-67
2023/12/08 01:27:39;;;;;;;57.90;28.60;;;;;;;0.66;100.00;101148.00;7400064;19;20018;-67
2023/12/08 01:30:09;;;;;;;59.40;29.52;;;;;;;0.64;100.00;101142.81;7400255;19;20036;-68
2023/12/08 01:32:37;;;;;;;57.05;30.00;;;;;;;0.63;100.00;101130.72;7399583;19;20094;-68
2023/12/08 01:35:09;;;;;;;62.88;31.05;;;;;;;0.62;100.00;101128.06;7399450;19;20078;-68
2023/12/08 01:37:38;;;;;;;54.70;28.58;;;;;;;0.61;100.00;101116.88;7400172;19;20020;-67
2023/12/08 01:40:15;;;;;;;59.60;30.63;;;;;;;0.60;100.00;101119.44;7399663;19;20011;-68
2023/12/08 01:42:44;;;;;;;59.63;30.13;;;;;;;0.59;100.00;101115.97;7399613;19;20085;-68
2023/12/08 01:45:13;;;;;;;59.20;31.00;;;;;;;0.57;100.00;101114.19;7395328;19;20035;-68
2023/12/08 01:47:43;;;;;;;59.30;30.33;;;;;;;0.58;100.00;101115.94;7398814;19;20010;-68
2023/12/08 01:50:15;;;;;;;58.95;30.85;;;;;;;0.56;100.00;101118.47;7398811;19;20018;-67
2023/12/08 01:52:44;;;;;;;61.17;30.83;;;;;;;0.56;100.00;101107.28;7397313;19;20014;-67
2023/12/08 01:55:14;;;;;;;63.55;31.58;;;;;;;0.56;100.00;101113.31;7399147;19;20010;-67
2023/12/08 01:57:42;;;;;;;60.47;29.73;;;;;;;0.55;100.00;101110.72;7396495;19;20078;-68
2023/12/08 02:00:13;;;;;;;66.85;32.13;;;;;;;0.54;100.00;101096.91;7399012;19;20011;-68
2023/12/08 02:02:43;;;;;;;59.33;29.30;;;;;;;0.54;100.00;101090.88;7399001;19;20010;-67
2023/12/08 02:05:16;;;;;;;61.78;30.63;;;;;;;0.53;100.00;101083.97;7398468;19;20485;-67
2023/12/08 02:07:46;;;;;;;61.70;30.95;;;;;;;0.53;100.00;101078.78;7398762;19;20436;-67
2023/12/08 02:10:14;;;;;;;60.53;30.45;;;;;;;0.50;100.00;101077.00;7397920;19;20544;-67
2023/12/08 02:12:43;;;;;;;64.13;31.45;;;;;;;0.48;100.00;101084.72;7398548;19;20363;-67
2023/12/08 02:15:12;;;;;;;63.28;30.92;;;;;;;0.48;100.00;101082.16;7398136;19;20010;-67
2023/12/08 02:17:41;;;;;;;61.60;29.38;;;;;;;0.48;100.00;101089.00;7398342;19;20014;-68
2023/12/08 02:20:11;;;;;;;71.25;32.72;;;;;;;0.47;100.00;101077.81;7397911;19;20488;-67
2023/12/08 02:22:42;;;;;;;66.75;31.90;;;;;;;0.47;100.00;101071.78;7398358;19;20020;-67
2023/12/08 02:25:13;;;;;;;67.82;32.45;;;;;;;0.46;100.00;101062.28;7396494;19;20010;-65
2023/12/08 02:27:42;;;;;;;64.72;31.10;;;;;;;0.45;100.00;101066.56;7398490;19;20011;-67
2023/12/08 02:30:12;;;;;;;65.18;31.10;;;;;;;0.43;100.00;101070.84;7397691;19;20074;-67
2023/12/08 02:32:47;;;;;;;69.78;32.78;;;;;;;0.43;100.00;101069.94;7397565;19;20014;-68
2023/12/08 02:35:18;;;;;;;68.68;32.60;;;;;;;0.42;100.00;101069.09;7398251;19;20023;-68
2023/12/08 02:37:48;;;;;;;69.28;33.58;;;;;;;0.42;100.00;101069.09;7398129;19;20094;-68
2023/12/08 02:40:20;;;;;;;68.45;33.10;;;;;;;0.40;100.00;101065.56;7397914;19;20010;-68
2023/12/08 02:42:49;;;;;;;65.47;30.77;;;;;;;0.39;100.00;101056.13;7397185;19;20480;-68
2023/12/08 02:45:30;;;;;;;76.95;34.33;;;;;;;0.39;100.00;101053.53;7395435;19;20014;-68
2023/12/08 02:47:59;;;;;;;70.55;32.45;;;;;;;0.39;100.00;101057.81;7396986;19;20023;-68
2023/12/08 02:50:27;;;;;;;71.80;33.50;;;;;;;0.37;100.00;101050.03;7396950;19;20074;-68
2023/12/08 02:52:56;;;;;;;68.10;32.95;;;;;;;0.35;100.00;101041.38;7397085;19;20090;-68
2023/12/08 02:55:27;;;;;;;70.65;32.92;;;;;;;0.35;100.00;101043.94;7397839;19;20010;-68
2023/12/08 02:57:55;;;;;;;71.22;34.08;;;;;;;0.34;100.00;101039.59;7394394;19;20069;-68
2023/12/08 03:00:24;;;;;;;70.63;33.63;;;;;;;0.33;100.00;101040.47;7396582;19;20023;-68
2023/12/08 03:02:52;;;;;;;77.30;33.08;;;;;;;0.32;100.00;101031.84;7397733;19;20078;-67
2023/12/08 03:05:21;;;;;;;70.10;33.35;;;;;;;0.32;100.00;101028.41;7396961;19;20023;-68
2023/12/08 03:07:49;;;;;;;71.28;33.92;;;;;;;0.31;100.00;101034.38;7396691;19;20019;-68
2023/12/08 03:10:18;;;;;;;75.30;34.47;;;;;;;0.31;100.00;101037.81;7396213;19;20078;-67
2023/12/08 03:12:49;;;;;;;73.97;34.80;;;;;;;0.31;100.00;101036.97;7396447;19;20031;-68
2023/12/08 03:15:18;;;;;;;72.30;32.95;;;;;;;0.32;100.00;101033.56;7398258;19;20473;-68
2023/12/08 03:17:46;;;;;;;72.68;34.78;;;;;;;0.30;100.00;101027.47;7398231;19;20024;-68
2023/12/08 03:20:15;;;;;;;77.80;34.38;;;;;;;0.30;100.00;101028.38;7396790;19;20006;-68
2023/12/08 03:22:43;;;;;;;76.10;35.25;;;;;;;0.31;100.00;101029.22;7396028;19;20070;-68
2023/12/08 03:25:11;;;;;;;77.25;33.88;;;;;;;0.30;100.00;101023.19;7396289;19;20035;-68
2023/12/08 03:27:40;;;;;;;72.97;32.83;;;;;;;0.31;100.00;101021.47;7395787;19;20481;-67
2023/12/08 03:30:14;;;;;;;74.13;34.50;;;;;;;0.29;100.00;101017.97;7395925;19;20011;-68
2023/12/08 03:32:43;;;;;;;73.78;33.50;;;;;;;0.28;100.00;101005.94;7393889;19;20017;-67
2023/12/08 03:35:11;;;;;;;74.22;33.80;;;;;;;0.26;100.00;101005.00;7395614;19;20011;-68
2023/12/08 03:37:40;;;;;;;75.25;34.60;;;;;;;0.24;100.00;101007.56;7395847;19;20108;-68
2023/12/08 03:40:10;;;;;;;76.90;35.70;;;;;;;0.22;100.00;101013.53;7395791;19;20039;-68
2023/12/08 03:42:38;;;;;;;73.53;33.38;;;;;;;0.19;100.00;101004.00;7395755;19;20090;-68
2023/12/08 03:45:08;;;;;;;76.63;34.75;;;;;;;0.18;100.00;100998.78;7394318;19;20018;-67
2023/12/08 03:47:39;;;;;;;77.82;34.90;;;;;;;0.15;100.00;100987.56;7395166;19;20481;-68
2023/12/08 03:50:08;;;;;;;83.05;35.17;;;;;;;0.13;100.00;100988.34;7395964;19;20014;-68
2023/12/08 03:52:36;;;;;;;82.68;35.55;;;;;;;0.10;100.00;100985.69;7393649;19;20035;-68
2023/12/08 03:55:05;;;;;;;82.80;35.40;;;;;;;0.08;100.00;100989.94;7395004;19;20074;-68
2023/12/08 03:57:41;;;;;;;91.80;36.22;;;;;;;0.05;100.00;100990.75;7395076;19;20075;-68
2023/12/08 04:00:10;;;;;;;87.25;36.75;;;;;;;0.02;100.00;100982.91;7395121;19;20363;-68
2023/12/08 04:02:42;;;;;;;91.78;36.83;;;;;;;0.00;100.00;100971.69;7394455;19;20011;-67
2023/12/08 04:05:11;;;;;;;90.68;37.78;;;;;;;-0.02;100.00;100963.03;7395408;19;20018;-66
2023/12/08 04:07:39;;;;;;;95.10;37.22;;;;;;;-0.04;100.00;100954.38;7395276;19;20010;-68
2023/12/08 04:10:09;;;;;;;95.50;37.30;;;;;;;-0.07;100.00;100950.03;7400780;19;20011;-68
2023/12/08 04:12:38;;;;;;;93.43;37.00;;;;;;;-0.08;100.00;100942.25;7400121;19;20014;-68
2023/12/08 04:15:07;;;;;;;96.22;38.53;;;;;;;-0.08;100.00;100929.34;7402663;19;20035;-68
2023/12/08 04:17:36;;;;;;;106.30;40.40;;;;;;;-0.11;100.00;100911.25;7402161;19;20022;-68
2023/12/08 04:20:08;;;;;;;91.22;37.30;;;;;;;-0.11;100.00;100906.06;7402107;19;20473;-68
2023/12/08 04:22:36;;;;;;;94.47;38.30;;;;;;;-0.12;100.00;100901.75;7402302;19;20014;-68
2023/12/08 04:25:05;;;;;;;99.30;38.13;;;;;;;-0.13;100.00;100892.25;7403594;19;20020;-68
2023/12/08 04:27:34;;;;;;;104.88;38.33;;;;;;;-0.14;100.00;100888.78;7404867;19;20010;-68
2023/12/08 04:30:02;;;;;;;107.07;39.03;;;;;;;-0.13;100.00;100905.16;7401882;19;20018;-68
2023/12/08 04:32:31;;;;;;;95.10;36.85;;;;;;;-0.13;100.00;100900.84;7399322;19;20066;-68
2023/12/08 04:34:59;;;;;;;105.47;39.38;;;;;;;-0.12;100.00;100917.22;7401127;19;20006;-68
2023/12/08 04:37:30;;;;;;;104.30;39.40;;;;;;;-0.12;100.00;100909.50;7401334;19;20014;-68
2023/12/08 04:39:58;;;;;;;104.85;39.17;;;;;;;-0.12;100.00;100906.91;7401893;19;20022;-68
2023/12/08 04:42:27;;;;;;;107.80;40.33;;;;;;;-0.12;100.00;100920.66;7400999;19;20481;-68
2023/12/08 04:45:02;;;;;;;98.82;38.25;;;;;;;-0.13;100.00;100924.06;7399870;19;20025;-68
2023/12/08 04:47:37;;;;;;;98.93;39.03;;;;;;;-0.15;100.00;100930.03;7401093;19;20073;-68
2023/12/08 04:50:06;;;;;;;100.40;40.15;;;;;;;-0.17;100.00;100933.44;7401411;19;20014;-68
2023/12/08 04:52:37;;;;;;;98.43;39.75;;;;;;;-0.17;100.00;100938.59;7397999;19;20029;-68
2023/12/08 04:55:07;;;;;;;91.20;39.03;;;;;;;-0.17;100.00;100935.16;7401646;19;20010;-68
2023/12/08 04:57:35;;;;;;;95.32;37.88;;;;;;;-0.19;100.00;100927.38;7398207;19;20091;-68
2023/12/08 05:00:05;;;;;;;93.50;37.42;;;;;;;-0.20;100.00;100920.47;7400100;19;20484;-68
2023/12/08 05:02:34;;;;;;;92.85;39.70;;;;;;;-0.20;100.00;100925.63;7401366;19;20031;-68
2023/12/08 05:05:03;;;;;;;91.03;35.97;;;;;;;-0.21;100.00;100925.59;7400194;19;20505;-67
2023/12/08 05:07:32;;;;;;;92.70;36.25;;;;;;;-0.22;100.00;100934.16;7400195;19;20355;-68
2023/12/08 05:10:03;;;;;;;94.30;38.50;;;;;;;-0.24;100.00;100941.88;7399935;19;20010;-68
2023/12/08 05:12:31;;;;;;;92.70;39.35;;;;;;;-0.26;100.00;100942.66;7397838;19;20036;-68
2023/12/08 05:14:59;;;;;;;91.45;37.95;;;;;;;-0.28;100.00;100947.75;7399197;19;20498;-68
2023/12/08 05:17:28;;;;;;;90.57;36.97;;;;;;;-0.30;100.00;100941.72;7400235;19;20027;-68
2023/12/08 05:19:56;;;;;;;90.40;38.67;;;;;;;-0.31;100.00;100937.38;7400265;19;20548;-67
2023/12/08 05:22:25;;;;;;;94.70;39.35;;;;;;;-0.31;100.00;100945.13;7401242;19;20018;-68
2023/12/08 05:24:53;;;;;;;96.10;39.17;;;;;;;-0.30;100.00;100941.72;7400192;19;20015;-67
2023/12/08 05:27:24;;;;;;;95.75;38.50;;;;;;;-0.28;100.00;100934.00;7399944;19;20015;-68
2023/12/08 05:29:53;;;;;;;97.10;37.85;;;;;;;-0.27;100.00;100918.56;7400383;19;20023;-67
2023/12/08 05:32:21;;;;;;;97.95;39.33;;;;;;;-0.26;100.00;100922.91;7397821;19;20481;-68
2023/12/08 05:34:50;;;;;;;96.53;38.83;;;;;;;-0.25;100.00;100921.19;7399622;19;20010;-67
2023/12/08 05:37:18;;;;;;;92.20;37.13;;;;;;;-0.25;100.00;100914.34;7399580;19;20022;-67
2023/12/08 05:39:46;;;;;;;95.82;39.33;;;;;;;-0.23;100.00;100907.53;7399566;19;20035;-68
2023/12/08 05:42:15;;;;;;;90.00;38.03;;;;;;;-0.21;100.00;100907.56;7400107;19;20010;-68
2023/12/08 05:44:46;;;;;;;76.95;34.58;;;;;;;-0.20;100.00;100904.16;7397576;19;20090;-68
2023/12/08 05:47:14;;;;;;;92.40;38.92;;;;;;;-0.20;100.00;100904.16;7396211;19;20023;-67
2023/12/08 05:49:43;;;;;;;89.55;38.92;;;;;;;-0.20;100.00;100910.16;7396913;19;20014;-68
2023/12/08 05:52:12;;;;;;;76.00;35.95;;;;;;;-0.22;100.00;100919.56;7396399;19;20481;-69
2023/12/08 05:54:40;;;;;;;90.35;36.95;;;;;;;-0.22;100.00;100919.56;7396596;19;20020;-68
2023/12/08 05:57:09;;;;;;;82.30;35.70;;;;;;;-0.22;100.00;100911.81;7398873;19;20078;-68
2023/12/08 05:59:37;;;;;;;84.07;36.85;;;;;;;-0.23;100.00;100907.53;7398187;19;20074;-69
2023/12/08 06:02:08;;;;;;;82.20;35.85;;;;;;;-0.23;100.00;100897.22;7395803;19;20014;-69
2023/12/08 06:04:37;;;;;;;86.45;41.38;;;;;;;-0.22;100.00;100898.06;7395929;19;20030;-67
2023/12/08 06:07:06;;;;;;;79.13;35.97;;;;;;;-0.24;100.00;100898.03;7397892;19;20035;-67
2023/12/08 06:09:34;;;;;;;74.10;35.08;;;;;;;-0.25;100.00;100892.81;7397913;19;20083;-67
2023/12/08 06:12:03;;;;;;;79.32;37.33;;;;;;;-0.27;100.00;100897.09;7397106;19;20018;-67
2023/12/08 06:14:31;;;;;;;76.00;36.47;;;;;;;-0.29;100.00;100897.06;7396416;19;20018;-67
2023/12/08 06:17:00;;;;;;;69.07;33.55;;;;;;;-0.32;100.00;100881.47;7397506;19;20006;-69
2023/12/08 06:19:31;;;;;;;71.38;34.28;;;;;;;-0.32;100.00;100875.47;7395844;19;20512;-70
2023/12/08 06:22:00;;;;;;;70.05;35.00;;;;;;;-0.32;100.00;100878.91;7394936;19;20011;-68
2023/12/08 06:24:28;;;;;;;78.00;36.10;;;;;;;-0.36;100.00;100880.53;7394092;19;20015;-68
2023/12/08 06:26:57;;;;;;;74.03;33.70;;;;;;;-0.36;100.00;100885.69;7396719;19;20019;-69
2023/12/08 06:29:25;;;;;;;76.93;36.25;;;;;;;-0.39;100.00;100880.47;7397504;19;20008;-69
2023/12/08 06:31:53;;;;;;;74.93;36.42;;;;;;;-0.39;100.00;100877.00;7395409;19;20027;-69
2023/12/08 06:34:22;;;;;;;74.38;36.15;;;;;;;-0.41;100.00;100874.38;7395447;19;20078;-69
2023/12/08 06:36:53;;;;;;;73.50;34.65;;;;;;;-0.40;100.00;100880.44;7396687;19;20473;-69
2023/12/08 06:39:22;;;;;;;68.03;33.78;;;;;;;-0.42;100.00;100874.34;7395118;19;20027;-69
2023/12/08 06:41:50;;;;;;;73.88;33.53;;;;;;;-0.43;100.00;100868.34;7397214;19;20014;-69
2023/12/08 06:44:19;;;;;;;74.47;33.95;;;;;;;-0.44;100.00;100860.53;7395493;19;20014;-69
2023/12/08 06:46:48;;;;;;;68.80;34.00;;;;;;;-0.46;100.00;100863.09;7395398;19;20371;-69
2023/12/08 06:49:23;;;;;;;73.20;34.38;;;;;;;-0.47;100.00;100866.50;7397323;19;20026;-69
2023/12/08 06:51:54;;;;;;;70.28;34.08;;;;;;;-0.47;100.00;100863.06;7397132;19;20010;-69
2023/12/08 06:54:22;;;;;;;73.45;34.67;;;;;;;-0.49;100.00;100868.19;7395725;19;20036;-69
2023/12/08 06:56:51;;;;;;;72.78;34.33;;;;;;;-0.50;100.00;100862.13;7396935;19;20014;-66
2023/12/08 06:59:19;;;;;;;65.60;33.10;;;;;;;-0.50;100.00;100861.28;7396927;19;20031;-67
2023/12/08 07:01:48;;;;;;;74.32;34.75;;;;;;;-0.52;100.00;100857.78;7396799;19;20023;-69
2023/12/08 07:04:16;;;;;;;70.72;34.03;;;;;;;-0.54;100.00;100855.16;7394958;19;20343;-68
2023/12/08 07:06:46;;;;;;;71.90;34.75;;;;;;;-0.55;100.00;100843.09;7396168;19;20010;-69
2023/12/08 07:09:17;;;;;;;61.42;32.30;;;;;;;-0.56;100.00;100845.66;7396223;19;20424;-67
2023/12/08 07:11:46;;;;;;;63.60;31.90;;;;;;;-0.58;100.00;100847.31;7395935;19;20502;-67
2023/12/08 07:14:14;;;;;;;67.57;32.22;;;;;;;-0.59;100.00;100846.44;7394590;19;20019;-68
2023/12/08 07:16:44;;;;;;;59.13;31.02;;;;;;;-0.60;100.00;100844.69;7395567;19;20036;-67
2023/12/08 07:19:13;;;;;;;65.03;33.13;;;;;;;-0.63;100.00;100833.44;7395740;19;20480;-67
2023/12/08 07:21:45;;;;;;;61.45;31.45;;;;;;;-0.63;100.00;100842.06;7395979;19;20022;-67
2023/12/08 07:24:14;;;;;;;65.88;32.00;;;;;;;-0.64;100.00;100831.69;7394819;19;20010;-68
2023/12/08 07:26:45;;;;;;;65.65;31.88;;;;;;;-0.66;100.00;100831.66;7395731;19;20029;-68
2023/12/08 07:29:13;;;;;;;72.13;32.35;;;;;;;-0.68;100.00;100825.63;7396321;19;20021;-67
2023/12/08 07:31:42;;;;;;;67.32;31.88;;;;;;;-0.69;100.00;100831.59;7395537;19;20011;-67
2023/12/08 07:34:10;;;;;;;64.43;31.55;;;;;;;-0.70;100.00;100833.28;7394576;19;20018;-67
2023/12/08 07:36:39;;;;;;;60.75;30.58;;;;;;;-0.69;100.00;100839.31;7393365;19;20023;-67
2023/12/08 07:39:13;;;;;;;65.82;32.65;;;;;;;-0.70;100.00;100846.16;7393725;19;20074;-68
2023/12/08 07:41:44;;;;;;;65.43;31.83;;;;;;;-0.69;100.00;100849.63;7398779;19;20164;-68
2023/12/08 07:44:13;;;;;;;63.53;31.98;;;;;;;-0.70;100.00;100848.75;7394155;19;20010;-68
2023/12/08 07:46:42;;;;;;;61.50;31.33;;;;;;;-0.69;100.00;100850.50;7393820;19;20014;-66
2023/12/08 07:49:11;;;;;;;56.40;28.38;;;;;;;-0.71;100.00;100840.97;7395554;19;20036;-71
2023/12/08 07:51:39;;;;;;;58.33;29.88;;;;;;;-0.69;100.00;100834.16;7393083;19;20491;-69
2023/12/08 07:54:14;;;;;;;57.70;30.45;;;;;;;-0.68;100.00;100831.63;7393080;19;20423;-68
2023/12/08 07:56:45;;;;;;;60.72;28.35;;;;;;;-0.66;100.00;100834.22;7395740;19;20015;-69
2023/12/08 07:59:14;;;;;;;55.38;29.55;;;;;;;-0.66;100.00;100832.53;7395264;19;20031;-68
2023/12/08 08:01:42;;;;;;;60.00;29.48;;;;;;;-0.63;100.00;100828.28;7392926;19;20019;-68
2023/12/08 08:04:12;;;;;;;60.35;31.25;;;;;;;-0.61;100.00;100829.22;7393198;19;20564;-68
2023/12/08 08:06:40;;;;;;;58.13;29.55;;;;;;;-0.60;100.00;100834.38;7392877;19;20011;-69
2023/12/08 08:09:09;;;;;;;104.32;54.15;;;;;;;-0.57;100.00;100834.50;7395111;19;20010;-68
2023/12/08 08:11:37;;;;;;;61.08;30.25;;;;;;;-0.53;100.00;100836.31;7394451;19;20043;-69
2023/12/08 08:14:08;;;;;;;59.67;29.20;;;;;;;-0.50;100.00;100836.38;7392028;19;20031;-69
2023/12/08 08:16:37;;;;;;;60.08;29.92;;;;;;;-0.46;100.00;100839.03;7393649;19;20220;-69
2023/12/08 08:19:05;;;;;;;60.33;30.65;;;;;;;-0.41;100.00;100846.03;7394429;19;20007;-69
2023/12/08 08:21:34;;;;;;;61.03;30.33;;;;;;;-0.37;100.00;100845.28;7394531;19;20384;-68
2023/12/08 08:24:02;;;;;;;56.13;28.02;;;;;;;-0.32;100.00;100841.94;7392657;19;20423;-69
2023/12/08 08:26:31;;;;;;;54.45;29.02;;;;;;;-0.29;100.00;100830.00;7393960;19;20020;-69
2023/12/08 08:28:59;;;;;;;53.03;28.35;;;;;;;-0.26;100.00;100830.06;7392296;19;20018;-69
2023/12/08 08:31:30;;;;;;;50.97;26.50;;;;;;;-0.22;100.00;100820.69;7394072;19;20510;-69
2023/12/08 08:34:20;;;;;;;48.15;26.23;;;;;;;-0.19;100.00;100811.34;7391866;19;20479;-69
2023/12/08 08:36:49;;;;;;;46.05;25.35;;;;;;;-0.15;100.00;100806.22;7393987;19;20023;-68
2023/12/08 08:39:18;;;;;;;45.92;25.00;;;;;;;-0.12;100.00;100802.03;7394131;19;20018;-69
2023/12/08 08:41:48;;;;;;;46.15;26.17;;;;;;;-0.10;100.00;100802.94;7394219;19;20037;-69
2023/12/08 08:44:14;;;;;;;42.40;23.65;;;;;;;-0.08;100.00;100808.13;7391980;19;20033;-69
2023/12/08 08:46:51;;;;;;;44.50;24.83;;;;;;;-0.04;100.00;100804.78;7392027;19;20014;-69
2023/12/08 08:49:20;;;;;;;40.83;22.30;;;;;;;-0.03;100.00;100802.22;7394318;19;20015;-69
2023/12/08 08:51:48;;;;;;;38.70;23.60;;;;;;;0.00;100.00;100811.78;7393372;19;20387;-69
2023/12/08 08:54:17;;;;;;;41.63;22.95;;;;;;;0.03;100.00;100816.97;7391769;19;20027;-69
2023/12/08 08:56:45;;;;;;;36.40;21.95;;;;;;;0.07;100.00;100812.75;7398144;19;20078;-68
2023/12/08 08:59:14;;;;;;;33.38;20.77;;;;;;;0.10;100.00;100818.88;7401100;19;20010;-68
2023/12/08 09:01:42;;;;;;;32.38;20.58;;;;;;;0.12;100.00;100801.69;7397850;19;20014;-68
2023/12/08 09:04:13;;;;;;;31.25;19.73;;;;;;;0.14;100.00;100797.44;7398134;19;20017;-67
2023/12/08 09:06:42;;;;;;;32.05;19.60;;;;;;;0.18;100.00;100807.81;7398548;19;20010;-68
2023/12/08 09:09:11;;;;;;;31.73;19.70;;;;;;;0.19;100.00;100807.88;7400431;19;20031;-68
2023/12/08 09:11:39;;;;;;;32.58;19.88;;;;;;;0.22;100.00;100810.50;7400429;19;20014;-69
2023/12/08 09:14:08;;;;;;;29.38;18.80;;;;;;;0.26;100.00;100803.72;7398207;19;20027;-68
2023/12/08 09:16:36;;;;;;;29.73;17.65;;;;;;;0.29;100.00;100806.34;7399835;19;20010;-69
2023/12/08 09:19:05;;;;;;;26.77;17.42;;;;;;;0.32;100.00;100809.00;7397473;19;20023;-68
2023/12/08 09:21:36;;;;;;;28.52;17.25;;;;;;;0.36;100.00;100804.78;7399749;19;20416;-68
2023/12/08 09:24:05;;;;;;;23.40;16.70;;;;;;;0.38;100.00;100806.56;7398045;19;20438;-68
2023/12/08 09:26:34;;;;;;;29.08;17.63;;;;;;;0.40;100.00;100798.84;7399609;19;20010;-68
2023/12/08 09:29:03;;;;;;;23.75;16.17;;;;;;;0.42;100.00;100798.03;7399704;19;20031;-68
2023/12/08 09:31:31;;;;;;;25.08;16.45;;;;;;;0.46;100.00;100792.09;7399604;19;20006;-68
2023/12/08 09:34:00;;;;;;;27.48;16.48;;;;;;;0.48;100.00;100781.78;7397401;19;20419;-68
2023/12/08 09:36:28;;;;;;;29.05;17.65;;;;;;;0.52;100.00;100777.56;7399017;19;20013;-68
2023/12/08 09:38:59;;;;;;;27.15;16.73;;;;;;;0.55;100.00;100780.22;7399509;19;20035;-68
2023/12/08 09:41:30;;;;;;;26.20;16.90;;;;;;;0.60;100.00;100781.19;7399612;19;20015;-68
2023/12/08 09:44:05;;;;;;;27.08;16.20;;;;;;;0.64;100.00;100775.22;7397440;19;20036;-68
2023/12/08 09:46:42;;;;;;;24.55;16.08;;;;;;;0.68;100.00;100771.84;7396774;19;20022;-68
2023/12/08 09:49:27;;;;;;;26.75;15.85;;;;;;;0.69;100.00;100763.28;7399653;19;20027;-69
2023/12/08 09:51:56;;;;;;;23.58;15.38;;;;;;;0.73;100.00;100772.81;7399225;19;20006;-68
2023/12/08 09:54:28;;;;;;;24.13;16.05;;;;;;;0.74;100.00;100766.81;7397172;19;20031;-68
2023/12/08 09:56:58;;;;;;;26.38;15.13;;;;;;;0.76;100.00;100765.13;7398791;19;20425;-69
2023/12/08 09:59:30;;;;;;;22.98;14.73;;;;;;;0.78;100.00;100757.41;7396679;19;20491;-69
2023/12/08 10:01:58;;;;;;;23.70;15.73;;;;;;;0.81;100.00;100760.06;7398874;19;20003;-69
2023/12/08 10:04:28;;;;;;;21.75;14.32;;;;;;;0.82;100.00;100766.94;7396320;19;20477;-69
2023/12/08 10:06:58;;;;;;;25.02;16.35;;;;;;;0.83;100.00;100762.66;7396775;19;20011;-69
2023/12/08 10:09:32;;;;;;;22.73;14.30;;;;;;;0.84;100.00;100754.94;7398315;19;20010;-68
2023/12/08 10:12:02;;;;;;;23.00;14.00;;;;;;;0.87;100.00;100762.72;7398459;19;20018;-70
2023/12/08 10:14:31;;;;;;;24.52;15.30;;;;;;;0.90;100.00;100757.63;7397123;19;20010;-69
2023/12/08 10:17:00;;;;;;;22.88;15.10;;;;;;;0.93;100.00;100749.06;7395976;19;20007;-69
2023/12/08 10:19:28;;;;;;;22.25;14.52;;;;;;;0.96;100.00;100751.69;7398115;19;20485;-70
2023/12/08 10:22:02;;;;;;;22.75;14.88;;;;;;;0.94;100.00;100745.66;7399201;19;20018;-72
2023/12/08 10:24:33;;;;;;;28.37;15.50;;;;;;;1.00;100.00;100742.28;7396474;19;20021;-72
2023/12/08 10:27:03;;;;;;;21.50;14.60;;;;;;;1.00;100.00;100742.28;7398279;19;20429;-69
2023/12/08 10:29:32;;;;;;;23.52;14.48;;;;;;;1.03;100.00;100748.38;7397265;19;20006;-68
2023/12/08 10:32:02;;;;;;;25.88;15.60;;;;;;;1.03;100.00;100745.81;7396784;19;20018;-68
2023/12/08 10:34:31;;;;;;;22.73;13.88;;;;;;;1.03;100.00;100732.88;7395055;19;20473;-68
2023/12/08 10:37:00;;;;;;;24.40;15.40;;;;;;;1.08;100.00;100736.41;7395614;19;20022;-69
2023/12/08 10:39:29;;;;;;;23.77;15.35;;;;;;;1.08;100.00;100727.81;7397278;19;20036;-69
2023/12/08 10:42:01;;;;;;;25.77;15.50;;;;;;;1.11;100.00;100726.16;7396806;19;20020;-69
2023/12/08 10:44:29;;;;;;;25.77;15.32;;;;;;;1.10;100.00;100713.19;7395140;19;20028;-70
2023/12/08 10:47:00;;;;;;;26.25;15.60;;;;;;;1.13;100.00;100718.41;7396090;19;20015;-70
2023/12/08 10:49:30;;;;;;;23.42;15.55;;;;;;;1.13;100.00;100721.84;7397647;19;20014;-69
2023/12/08 10:52:00;;;;;;;22.77;13.95;;;;;;;1.13;100.00;100721.00;7397759;19;20015;-69
2023/12/08 10:54:29;;;;;;;24.85;15.68;;;;;;;1.14;100.00;100718.44;7395453;19;20086;-72
2023/12/08 10:57:00;;;;;;;27.85;16.58;;;;;;;1.14;100.00;100723.59;7396981;19;20481;-68
2023/12/08 10:59:31;;;;;;;28.38;16.83;;;;;;;1.14;100.00;100707.25;7397563;19;20014;-68
2023/12/08 11:02:04;;;;;;;25.40;16.85;;;;;;;1.12;100.00;100714.94;7397148;19;20014;-68
2023/12/08 11:04:36;;;;;;;22.33;15.90;;;;;;;1.13;100.00;100716.69;7395074;19;20018;-69
2023/12/08 11:07:12;;;;;;;25.67;16.67;;;;;;;1.14;100.00;100715.00;7396151;19;20010;-69
2023/12/08 11:09:42;;;;;;;29.40;17.02;;;;;;;1.17;100.00;100709.00;7398363;19;20078;-69
2023/12/08 11:12:18;;;;;;;31.52;18.38;;;;;;;1.16;100.00;100707.25;7396398;19;20031;-69
2023/12/08 11:14:53;;;;;;;27.10;16.48;;;;;;;1.17;100.00;100704.69;7394607;19;20022;-68
2023/12/08 11:17:29;;;;;;;30.55;19.27;;;;;;;1.18;100.00;100708.16;7393328;19;20115;-68